Time;durP1;ratioP1;P1;durP2;ratioP2;P2;SDS_P1;SDS_P2;PMS_P1;PMS_P2;Temp;Humidity;BMP_temperature;BMP_pressure;BME280_temperature;BME280_humidity;BME280_pressure;Samples;Min_cycle;Max_cycle;Signal;HPM_P1;HPM_P2
2022/09/01 00:00:32;;;;;;;3.13;2.67;;;19.40;99.90;;;;;;5015230;28;20194;-62
2022/09/01 00:02:58;;;;;;;5.60;3.15;;;19.50;99.90;;;;;;5013482;28;20656;-62
2022/09/01 00:05:23;;;;;;;3.58;2.70;;;19.50;99.90;;;;;;5046523;28;20191;-63
2022/09/01 00:07:49;;;;;;;4.32;3.33;;;19.40;99.90;;;;;;5047165;28;20223;-63
2022/09/01 00:10:15;;;;;;;5.60;3.60;;;19.30;99.90;;;;;;5015041;28;20192;-62
2022/09/01 00:12:42;;;;;;;5.25;3.88;;;19.30;99.90;;;;;;5024429;28;20530;-62
2022/09/01 00:15:09;;;;;;;3.28;2.95;;;19.20;99.90;;;;;;5026685;28;20206;-62
2022/09/01 00:17:35;;;;;;;9.35;3.42;;;19.20;99.90;;;;;;5027699;28;20214;-62
2022/09/01 00:20:01;;;;;;;4.20;3.25;;;19.10;99.90;;;;;;5014751;28;20219;-63
2022/09/01 00:22:28;;;;;;;3.05;2.72;;;19.10;99.90;;;;;;5022030;28;20187;-62
2022/09/01 00:24:54;;;;;;;3.75;2.95;;;19.10;99.90;;;;;;5016533;28;20183;-62
2022/09/01 00:27:19;;;;;;;4.18;2.72;;;19.20;99.90;;;;;;5023584;28;20291;-62
2022/09/01 00:29:45;;;;;;;4.28;3.53;;;19.20;99.90;;;;;;5020549;28;20203;-62
2022/09/01 00:32:11;;;;;;;4.07;3.70;;;19.20;99.90;;;;;;5025899;28;20198;-62
2022/09/01 00:34:37;;;;;;;3.28;3.08;;;19.10;99.90;;;;;;5026163;28;20554;-63
2022/09/01 00:37:02;;;;;;;3.70;2.78;;;19.00;99.90;;;;;;5033563;28;20252;-62
2022/09/01 00:39:28;;;;;;;3.22;2.92;;;18.90;99.90;;;;;;5016131;28;20526;-62
2022/09/01 00:41:54;;;;;;;3.05;2.60;;;18.80;99.90;;;;;;5017243;28;20206;-63
2022/09/01 00:44:22;;;;;;;2.75;2.55;;;18.80;99.90;;;;;;5024653;28;20193;-62
2022/09/01 00:46:51;;;;;;;3.08;2.75;;;18.70;99.90;;;;;;5019293;28;20194;-62
2022/09/01 00:49:35;;;;;;;3.05;2.85;;;18.80;99.90;;;;;;5029134;28;20536;-62
2022/09/01 00:52:09;;;;;;;5.55;2.45;;;18.80;99.90;;;;;;5019526;28;20194;-62
2022/09/01 00:54:39;;;;;;;7.40;3.25;;;18.60;99.90;;;;;;5021565;28;20551;-62
2022/09/01 00:57:08;;;;;;;2.65;2.45;;;18.60;99.90;;;;;;5030280;28;20186;-62
2022/09/01 00:59:37;;;;;;;4.57;2.70;;;18.60;99.90;;;;;;5016316;28;20265;-63
2022/09/01 01:02:03;;;;;;;3.80;2.63;;;18.60;99.90;;;;;;5020564;28;20178;-63
2022/09/01 01:04:30;;;;;;;3.80;2.83;;;18.60;99.90;;;;;;5024549;28;20529;-62
2022/09/01 01:07:00;;;;;;;2.47;2.28;;;18.60;99.90;;;;;;5013516;28;20191;-63
2022/09/01 01:09:28;;;;;;;3.90;2.47;;;18.50;99.90;;;;;;5013898;28;20691;-63
2022/09/01 01:11:59;;;;;;;2.55;2.33;;;18.50;99.90;;;;;;5015498;28;20269;-64
2022/09/01 01:14:30;;;;;;;4.60;2.80;;;18.40;99.90;;;;;;5020663;28;20273;-64
2022/09/01 01:16:57;;;;;;;4.32;2.67;;;18.30;99.90;;;;;;5017948;28;20237;-63
2022/09/01 01:23:07;;;;;;;2.28;2.08;;;18.30;99.90;;;;;;5019189;28;20245;-63
2022/09/01 01:25:36;;;;;;;3.45;2.95;;;18.30;99.90;;;;;;5019274;28;20278;-63
2022/09/01 01:28:15;;;;;;;2.38;2.25;;;18.30;99.90;;;;;;5056320;28;20636;-64
2022/09/01 01:30:49;;;;;;;4.55;2.25;;;18.20;99.90;;;;;;5013571;28;20703;-63
2022/09/01 01:33:16;;;;;;;2.75;2.45;;;18.20;99.90;;;;;;5013251;28;20213;-63
2022/09/01 01:35:42;;;;;;;4.80;2.85;;;18.30;99.90;;;;;;5020912;28;20186;-62
2022/09/01 01:38:08;;;;;;;8.55;2.70;;;18.10;99.90;;;;;;5026751;28;20195;-63
2022/09/01 01:40:36;;;;;;;2.80;1.88;;;18.00;99.90;;;;;;5044799;28;20194;-63
2022/09/01 01:43:03;;;;;;;2.15;2.00;;;18.00;99.90;;;;;;5013168;28;20187;-65
2022/09/01 01:45:30;;;;;;;3.78;2.10;;;18.00;99.90;;;;;;5013724;28;20235;-62
2022/09/01 01:47:56;;;;;;;2.35;2.13;;;18.00;99.90;;;;;;5021066;28;20571;-63
2022/09/01 01:50:24;;;;;;;1.90;1.80;;;18.00;99.90;;;;;;5029476;28;20190;-63
2022/09/01 01:52:50;;;;;;;4.22;1.65;;;18.00;99.90;;;;;;5023051;28;20179;-65
2022/09/01 01:55:18;;;;;;;2.35;2.15;;;18.00;99.90;;;;;;4995707;28;20187;-64
2022/09/01 01:57:48;;;;;;;2.28;2.08;;;18.00;99.90;;;;;;5013454;28;20210;-63
2022/09/01 02:00:18;;;;;;;1.40;1.30;;;18.10;99.90;;;;;;5015811;28;20179;-64
2022/09/01 02:02:51;;;;;;;2.53;1.77;;;18.20;99.90;;;;;;5012610;28;20644;-64
2022/09/01 02:05:21;;;;;;;2.70;1.75;;;18.30;99.90;;;;;;5023267;28;20651;-62
2022/09/01 02:07:49;;;;;;;2.00;1.88;;;18.30;99.90;;;;;;5017802;28;20243;-62
2022/09/01 02:10:15;;;;;;;3.35;2.03;;;18.20;99.90;;;;;;5026241;28;20211;-63
2022/09/01 02:12:42;;;;;;;3.88;1.88;;;18.10;99.90;;;;;;5017822;28;20188;-62
2022/09/01 02:15:11;;;;;;;2.65;1.70;;;18.10;99.90;;;;;;5024414;28;20663;-63
2022/09/01 02:17:38;;;;;;;2.08;1.65;;;18.20;99.90;;;;;;5012693;28;20179;-62
2022/09/01 02:20:05;;;;;;;2.03;1.90;;;18.20;99.90;;;;;;5013048;28;20644;-63
2022/09/01 02:22:31;;;;;;;1.80;1.67;;;18.20;99.90;;;;;;5013012;28;20179;-62
2022/09/01 02:24:59;;;;;;;4.30;2.10;;;18.10;99.90;;;;;;5017876;28;20267;-62
2022/09/01 02:27:28;;;;;;;1.58;1.48;;;18.00;99.90;;;;;;5020401;28;20176;-62
2022/09/01 02:29:54;;;;;;;2.05;1.85;;;18.10;99.90;;;;;;5025926;28;20195;-62
2022/09/01 02:32:21;;;;;;;3.58;1.67;;;18.10;99.90;;;;;;5023184;28;20193;-63
2022/09/01 02:34:52;;;;;;;2.38;2.00;;;18.10;99.90;;;;;;5031464;28;20186;-63
2022/09/01 02:37:24;;;;;;;2.00;1.90;;;18.10;99.90;;;;;;5020346;28;20198;-62
2022/09/01 02:39:52;;;;;;;2.53;1.90;;;18.10;99.90;;;;;;5015747;28;20241;-62
2022/09/01 02:42:26;;;;;;;1.35;1.25;;;18.20;99.90;;;;;;5023431;28;20187;-63
2022/09/01 02:44:57;;;;;;;2.42;2.25;;;18.10;99.90;;;;;;5014531;28;20295;-62
2022/09/01 02:47:27;;;;;;;2.55;2.35;;;18.00;99.90;;;;;;5012885;28;20672;-62
2022/09/01 02:49:53;;;;;;;3.05;1.80;;;18.00;99.90;;;;;;5024297;28;20270;-62
2022/09/01 02:52:22;;;;;;;2.08;1.98;;;17.90;99.90;;;;;;5013963;28;20676;-62
2022/09/01 02:54:48;;;;;;;4.03;2.10;;;17.80;99.90;;;;;;5014674;28;20192;-62
2022/09/01 02:57:16;;;;;;;1.88;1.73;;;17.80;99.90;;;;;;5028615;28;20648;-64
2022/09/01 02:59:41;;;;;;;2.50;2.25;;;17.80;99.90;;;;;;5025800;28;20190;-63
2022/09/01 03:02:08;;;;;;;3.05;1.73;;;17.70;99.90;;;;;;5024839;28;20275;-63
2022/09/01 03:04:35;;;;;;;3.88;1.92;;;17.70;99.90;;;;;;5029293;28;20252;-63
2022/09/01 03:07:04;;;;;;;4.82;2.83;;;17.70;99.90;;;;;;5029233;28;20224;-63
2022/09/01 03:09:31;;;;;;;2.58;2.03;;;17.70;99.90;;;;;;5014408;28;20204;-63
2022/09/01 03:11:57;;;;;;;2.10;1.90;;;17.70;99.90;;;;;;5020131;28;20290;-62
2022/09/01 03:14:24;;;;;;;3.83;2.38;;;17.70;99.90;;;;;;5018809;28;20183;-63
2022/09/01 03:16:51;;;;;;;11.60;2.45;;;17.80;99.90;;;;;;5030001;28;20183;-63
2022/09/01 03:19:18;;;;;;;3.40;2.92;;;17.80;99.90;;;;;;5027124;28;20214;-63
2022/09/01 03:21:45;;;;;;;2.58;1.83;;;17.70;99.90;;;;;;5019085;28;20183;-63
2022/09/01 03:24:15;;;;;;;2.70;1.75;;;17.60;99.90;;;;;;5019737;28;20206;-63
2022/09/01 03:26:43;;;;;;;2.85;2.65;;;17.60;99.90;;;;;;5017090;28;20214;-65
2022/09/01 03:29:09;;;;;;;6.97;2.20;;;17.60;99.90;;;;;;5033140;28;20218;-63
2022/09/01 03:31:35;;;;;;;2.45;2.25;;;17.50;99.90;;;;;;5032697;28;20293;-63
2022/09/01 03:34:04;;;;;;;3.50;1.92;;;17.50;99.90;;;;;;5020486;28;20183;-63
2022/09/01 03:36:32;;;;;;;2.95;2.58;;;17.50;99.90;;;;;;5020698;28;20226;-62
2022/09/01 03:38:58;;;;;;;2.90;2.70;;;17.50;99.90;;;;;;5014264;28;20199;-63
2022/09/01 03:41:28;;;;;;;2.30;2.15;;;17.40;99.90;;;;;;5025719;28;20186;-63
2022/09/01 03:43:56;;;;;;;4.57;2.90;;;17.40;99.90;;;;;;5020106;28;20187;-63
2022/09/01 03:46:23;;;;;;;2.58;2.15;;;17.30;99.90;;;;;;5029625;28;20190;-63
2022/09/01 03:48:53;;;;;;;2.92;2.50;;;17.40;99.90;;;;;;5032966;28;20560;-63
2022/09/01 03:51:21;;;;;;;2.58;2.38;;;17.30;99.90;;;;;;5019868;28;20183;-63
2022/09/01 03:53:47;;;;;;;2.42;1.92;;;17.30;99.90;;;;;;5021691;28;20265;-63
2022/09/01 03:56:14;;;;;;;7.50;2.63;;;17.30;99.90;;;;;;5030533;28;20260;-63
2022/09/01 03:58:45;;;;;;;5.63;2.92;;;17.20;99.90;;;;;;5026524;28;20194;-63
2022/09/01 04:01:12;;;;;;;3.30;2.15;;;17.10;99.90;;;;;;5027776;28;20549;-63
2022/09/01 04:03:39;;;;;;;2.53;1.60;;;17.10;99.90;;;;;;5013312;28;20608;-63
2022/09/01 04:06:07;;;;;;;2.20;1.85;;;17.00;99.90;;;;;;5015244;28;20187;-62
2022/09/01 04:08:33;;;;;;;4.45;2.53;;;17.00;99.90;;;;;;5027176;28;20253;-63
2022/09/01 04:11:04;;;;;;;2.72;2.17;;;17.10;99.90;;;;;;5014962;28;20269;-63
2022/09/01 04:13:35;;;;;;;3.38;2.10;;;17.10;99.90;;;;;;5016502;28;20206;-63
2022/09/01 04:16:01;;;;;;;2.75;2.55;;;17.10;99.90;;;;;;5019366;28;20174;-63
2022/09/01 04:18:26;;;;;;;3.25;2.25;;;17.10;99.90;;;;;;5024784;28;20707;-63
2022/09/01 04:20:58;;;;;;;5.72;2.45;;;17.00;99.90;;;;;;5022719;28;20701;-64
2022/09/01 04:23:34;;;;;;;4.68;2.30;;;17.00;99.90;;;;;;5005964;28;20238;-63
2022/09/01 04:26:07;;;;;;;4.60;4.20;;;16.90;99.90;;;;;;5015779;28;20636;-62
2022/09/01 04:28:36;;;;;;;4.60;2.47;;;16.80;99.90;;;;;;5025340;28;20289;-63
2022/09/01 04:31:04;;;;;;;2.25;2.10;;;16.80;99.90;;;;;;5017240;28;20239;-62
2022/09/01 04:33:36;;;;;;;4.05;3.58;;;16.60;99.90;;;;;;5025955;28;20556;-64
2022/09/01 04:36:04;;;;;;;2.85;2.40;;;16.60;99.90;;;;;;5021385;28;20167;-62
2022/09/01 04:38:29;;;;;;;2.92;2.67;;;16.50;99.90;;;;;;5020565;28;20191;-62
2022/09/01 04:40:56;;;;;;;3.63;1.90;;;16.50;99.90;;;;;;5024364;28;20541;-61
2022/09/01 04:43:23;;;;;;;3.05;1.80;;;16.40;99.90;;;;;;5017192;28;20179;-61
2022/09/01 04:45:50;;;;;;;3.17;2.22;;;16.40;99.90;;;;;;5016580;28;20194;-62
2022/09/01 04:48:18;;;;;;;2.67;2.47;;;16.40;99.90;;;;;;5027445;28;20293;-62
2022/09/01 04:50:44;;;;;;;2.88;2.05;;;16.20;99.90;;;;;;5032235;28;20191;-62
2022/09/01 04:53:11;;;;;;;7.55;2.67;;;16.20;99.90;;;;;;5014345;28;20202;-62
2022/09/01 04:55:43;;;;;;;6.15;2.83;;;16.30;99.90;;;;;;5018349;28;20180;-62
2022/09/01 04:58:16;;;;;;;3.83;2.85;;;16.40;99.90;;;;;;5019034;28;20270;-62
2022/09/01 05:00:43;;;;;;;3.40;2.45;;;16.50;99.90;;;;;;5027673;28;20210;-62
2022/09/01 05:03:10;;;;;;;3.05;2.50;;;16.50;99.90;;;;;;5024134;28;20663;-62
2022/09/01 05:05:44;;;;;;;3.13;2.72;;;16.60;99.90;;;;;;5030055;28;20190;-61
2022/09/01 05:08:16;;;;;;;2.97;2.47;;;16.60;99.90;;;;;;5026524;28;20714;-61
2022/09/01 05:10:51;;;;;;;6.10;3.20;;;16.50;99.90;;;;;;5014055;28;20226;-62
2022/09/01 05:13:17;;;;;;;2.80;2.60;;;16.40;99.90;;;;;;5017461;28;20593;-62
2022/09/01 05:15:45;;;;;;;5.35;3.00;;;16.30;99.90;;;;;;5026801;28;20522;-61
2022/09/01 05:18:22;;;;;;;5.80;2.60;;;16.40;99.90;;;;;;5021968;28;20190;-61
2022/09/01 05:20:49;;;;;;;2.20;2.10;;;16.30;99.90;;;;;;5025019;28;20177;-61
2022/09/01 05:23:18;;;;;;;4.28;3.00;;;16.30;99.90;;;;;;5025322;28;20191;-61
2022/09/01 05:25:47;;;;;;;3.47;3.22;;;16.30;99.90;;;;;;5017354;28;20211;-61
2022/09/01 05:28:17;;;;;;;4.47;3.30;;;16.30;99.90;;;;;;5013372;28;20237;-61
2022/09/01 05:30:44;;;;;;;5.13;4.65;;;16.20;99.90;;;;;;5013948;28;20548;-61
2022/09/01 05:33:11;;;;;;;7.95;3.45;;;16.30;99.90;;;;;;5027097;28;20187;-61
2022/09/01 05:35:43;;;;;;;4.30;2.80;;;16.30;99.90;;;;;;5026612;28;20229;-61
2022/09/01 05:38:12;;;;;;;4.55;3.10;;;16.40;99.90;;;;;;5013548;28;20283;-61
2022/09/01 05:40:42;;;;;;;4.40;3.08;;;16.50;99.90;;;;;;5022340;28;20193;-61
2022/09/01 05:43:11;;;;;;;3.70;3.20;;;16.50;99.90;;;;;;5027386;28;20186;-61
2022/09/01 05:45:39;;;;;;;5.82;4.97;;;16.40;99.90;;;;;;5044334;28;20206;-62
2022/09/01 05:48:05;;;;;;;6.30;3.55;;;16.50;99.90;;;;;;5014384;28;20214;-62
2022/09/01 05:50:30;;;;;;;15.50;4.30;;;16.50;99.90;;;;;;5029326;28;20547;-62
2022/09/01 05:52:56;;;;;;;10.75;3.90;;;16.50;99.90;;;;;;5018133;28;20214;-61
2022/09/01 05:55:26;;;;;;;4.50;3.78;;;16.50;99.90;;;;;;5030313;28;20278;-62
2022/09/01 05:57:52;;;;;;;4.50;3.47;;;16.50;99.90;;;;;;5031474;28;20237;-62
2022/09/01 06:00:19;;;;;;;7.07;3.83;;;16.40;99.90;;;;;;5029782;28;20191;-62
2022/09/01 06:02:45;;;;;;;5.55;3.75;;;16.50;99.90;;;;;;5027050;28;20643;-61
2022/09/01 06:05:14;;;;;;;6.93;4.20;;;16.50;99.90;;;;;;5027154;28;20221;-62
2022/09/01 06:07:41;;;;;;;11.07;4.28;;;16.50;99.90;;;;;;5013214;28;20206;-61
2022/09/01 06:10:07;;;;;;;9.02;4.25;;;16.50;99.90;;;;;;5029054;28;20667;-62
2022/09/01 06:12:33;;;;;;;5.32;4.72;;;16.40;99.90;;;;;;5025241;28;20189;-62
2022/09/01 06:15:00;;;;;;;5.85;4.88;;;16.30;99.90;;;;;;5025955;28;20187;-61
2022/09/01 06:17:28;;;;;;;8.18;5.45;;;16.40;99.90;;;;;;5013826;28;20537;-62
2022/09/01 06:19:55;;;;;;;7.75;4.30;;;16.40;99.90;;;;;;5023381;28;20214;-61
2022/09/01 06:22:23;;;;;;;7.72;5.85;;;16.40;99.90;;;;;;5029609;28;20182;-62
2022/09/01 06:24:50;;;;;;;6.28;4.40;;;16.40;99.90;;;;;;5021893;28;20721;-62
2022/09/01 06:27:19;;;;;;;6.90;5.60;;;16.60;99.90;;;;;;5017872;28;20191;-62
2022/09/01 06:29:46;;;;;;;9.82;5.15;;;16.80;99.90;;;;;;5015401;28;20261;-60
2022/09/01 06:32:12;;;;;;;5.32;4.90;;;17.10;99.90;;;;;;5014491;28;20199;-62
2022/09/01 06:34:43;;;;;;;10.18;5.70;;;17.10;99.90;;;;;;5011266;28;20187;-62
2022/09/01 06:37:12;;;;;;;7.63;4.85;;;17.10;99.90;;;;;;5012952;28;20191;-62
2022/09/01 06:39:38;;;;;;;7.65;6.10;;;16.90;99.90;;;;;;5015411;28;20195;-62
2022/09/01 06:42:04;;;;;;;7.45;5.65;;;16.80;99.90;;;;;;5029464;28;20189;-61
2022/09/01 06:44:30;;;;;;;8.75;4.85;;;16.80;99.90;;;;;;5015531;28;20266;-62
2022/09/01 06:46:58;;;;;;;7.80;5.32;;;17.00;99.90;;;;;;5012751;28;20194;-61
2022/09/01 06:49:31;;;;;;;8.65;5.75;;;17.20;99.90;;;;;;5012361;28;20664;-62
2022/09/01 06:52:04;;;;;;;8.45;5.07;;;17.30;99.90;;;;;;5018269;28;20179;-61
2022/09/01 06:54:32;;;;;;;7.80;5.07;;;17.20;99.90;;;;;;5032124;28;20237;-62
2022/09/01 06:56:59;;;;;;;8.70;5.18;;;17.20;99.90;;;;;;5014945;28;20524;-62
2022/09/01 06:59:30;;;;;;;4.95;4.45;;;17.10;99.90;;;;;;5015157;28;20191;-62
2022/09/01 07:02:00;;;;;;;8.50;4.80;;;17.10;99.90;;;;;;5015866;28;20187;-61
2022/09/01 07:04:28;;;;;;;7.18;5.07;;;17.00;99.90;;;;;;5052620;28;20186;-62
2022/09/01 07:06:54;;;;;;;6.90;4.40;;;17.20;99.90;;;;;;5024393;28;20199;-62
2022/09/01 07:09:20;;;;;;;5.95;4.82;;;17.40;99.90;;;;;;5024119;28;20690;-63
2022/09/01 07:11:45;;;;;;;7.80;5.25;;;17.60;99.90;;;;;;5020509;28;20222;-63
2022/09/01 07:14:14;;;;;;;4.90;4.18;;;17.50;99.90;;;;;;5017771;28;20191;-62
2022/09/01 07:16:43;;;;;;;4.88;4.38;;;17.50;99.90;;;;;;5029983;28;20186;-62
2022/09/01 07:19:13;;;;;;;7.80;4.50;;;17.50;99.90;;;;;;5024116;28;20198;-61
2022/09/01 07:21:41;;;;;;;7.15;5.30;;;17.90;99.90;;;;;;5027425;28;20182;-61
2022/09/01 07:24:07;;;;;;;5.15;4.75;;;17.90;99.90;;;;;;5018633;28;20179;-61
2022/09/01 07:26:34;;;;;;;8.57;4.28;;;18.00;99.90;;;;;;5024354;28;20266;-61
2022/09/01 07:29:02;;;;;;;7.65;4.50;;;18.00;99.90;;;;;;5052588;28;20199;-61
2022/09/01 07:31:35;;;;;;;6.35;4.80;;;18.70;99.90;;;;;;5023835;28;20182;-61
2022/09/01 07:34:04;;;;;;;6.05;3.85;;;20.20;99.90;;;;;;5017844;28;20194;-62
2022/09/01 07:36:31;;;;;;;5.03;4.18;;;21.60;99.90;;;;;;5029578;28;20223;-62
2022/09/01 07:39:00;;;;;;;7.55;4.55;;;22.30;99.90;;;;;;5023483;28;20183;-62
2022/09/01 07:41:27;;;;;;;6.47;3.92;;;23.10;99.90;;;;;;5019105;28;20632;-62
2022/09/01 07:43:55;;;;;;;3.78;3.33;;;24.20;99.90;;;;;;5029707;28;20179;-62
2022/09/01 07:46:23;;;;;;;5.45;3.53;;;24.80;99.90;;;;;;5029178;28;20198;-62
2022/09/01 07:48:51;;;;;;;6.25;4.60;;;25.20;99.90;;;;;;5015848;28;20269;-61
2022/09/01 07:51:19;;;;;;;4.25;3.33;;;25.80;99.90;;;;;;5023047;28;20184;-61
2022/09/01 07:53:47;;;;;;;7.50;3.78;;;26.60;99.90;;;;;;5021722;28;20183;-61
2022/09/01 07:56:15;;;;;;;6.03;3.55;;;27.20;99.90;;;;;;5032627;28;20236;-63
2022/09/01 07:58:41;;;;;;;4.30;3.90;;;26.80;99.90;;;;;;5014737;28;20550;-60
2022/09/01 08:01:18;;;;;;;3.72;3.10;;;26.30;99.90;;;;;;5013770;28;20183;-61
2022/09/01 08:03:46;;;;;;;3.58;3.28;;;26.40;99.90;;;;;;5057273;28;20555;-60
2022/09/01 08:06:13;;;;;;;5.53;3.38;;;26.30;99.90;;;;;;5025301;28;20178;-61
2022/09/01 08:08:40;;;;;;;3.35;2.92;;;26.90;99.90;;;;;;5028915;28;20267;-61
2022/09/01 08:11:06;;;;;;;6.95;3.45;;;27.70;99.90;;;;;;5026642;28;20204;-61
2022/09/01 08:13:33;;;;;;;3.90;3.15;;;27.60;99.90;;;;;;5042121;28;20186;-61
2022/09/01 08:16:03;;;;;;;5.90;3.70;;;27.30;99.90;;;;;;5030342;28;20650;-61
2022/09/01 08:18:29;;;;;;;4.43;3.22;;;27.60;99.90;;;;;;5018309;28;20593;-61
2022/09/01 08:20:55;;;;;;;16.30;2.83;;;27.20;99.90;;;;;;5004910;28;20198;-61
2022/09/01 08:23:25;;;;;;;3.25;3.05;;;27.30;99.90;;;;;;5029927;28;20551;-61
2022/09/01 08:25:52;;;;;;;4.03;2.88;;;28.10;99.90;;;;;;5019999;28;20190;-61
2022/09/01 08:28:17;;;;;;;3.20;2.80;;;27.90;99.90;;;;;;5020545;28;20260;-62
2022/09/01 08:30:45;;;;;;;2.42;2.20;;;28.80;99.90;;;;;;5029364;28;20194;-61
2022/09/01 08:33:12;;;;;;;3.92;3.03;;;29.00;99.90;;;;;;5020421;28;20183;-61
2022/09/01 08:35:43;;;;;;;3.80;2.95;;;29.20;99.90;;;;;;5020740;28;20182;-61
2022/09/01 08:38:09;;;;;;;2.85;2.65;;;29.40;99.90;;;;;;5014079;28;20182;-61
2022/09/01 08:40:35;;;;;;;3.08;2.80;;;29.40;99.90;;;;;;5014119;28;20190;-61
2022/09/01 08:43:27;;;;;;;3.25;2.95;;;29.20;99.90;;;;;;5016808;28;20654;-62
2022/09/01 08:45:56;;;;;;;4.47;2.97;;;29.80;99.90;;;;;;5028078;28;20248;-61
2022/09/01 08:48:41;;;;;;;6.75;2.47;;;29.50;99.90;;;;;;5030477;28;20209;-62
2022/09/01 08:51:29;;;;;;;3.47;3.25;;;28.60;99.90;;;;;;5029721;28;20289;-61
2022/09/01 08:54:13;;;;;;;2.53;2.40;;;28.50;99.90;;;;;;5014434;28;20194;-61
2022/09/01 08:56:39;;;;;;;3.55;3.13;;;29.00;99.90;;;;;;5029901;28;20282;-61
2022/09/01 08:59:11;;;;;;;3.35;3.13;;;28.40;99.90;;;;;;5009158;28;20183;-61
2022/09/01 09:01:51;;;;;;;3.08;2.75;;;27.50;99.90;;;;;;5016969;28;20205;-61
2022/09/01 09:04:48;;;;;;;3.15;2.85;;;25.70;99.90;;;;;;5022246;28;20193;-61
2022/09/01 09:07:37;;;;;;;2.35;2.22;;;24.80;99.90;;;;;;5011009;28;20195;-61
2022/09/01 09:10:14;;;;;;;3.40;3.10;;;24.40;99.90;;;;;;5014934;28;20687;-60
2022/09/01 09:12:56;;;;;;;2.22;2.10;;;24.50;99.90;;;;;;5025252;28;20187;-61
2022/09/01 09:15:39;;;;;;;3.38;3.13;;;24.50;99.90;;;;;;5019234;28;20229;-62
2022/09/01 09:18:31;;;;;;;3.25;2.58;;;24.50;99.90;;;;;;5015504;28;20580;-61
2022/09/01 09:21:05;;;;;;;2.25;2.13;;;24.40;99.90;;;;;;5032446;28;20554;-62
2022/09/01 09:23:37;;;;;;;2.97;2.78;;;24.60;99.90;;;;;;5013593;28;20186;-61
2022/09/01 09:26:02;;;;;;;3.35;3.00;;;24.70;99.90;;;;;;5019693;28;20631;-61
2022/09/01 09:28:28;;;;;;;2.90;2.70;;;24.80;99.90;;;;;;5013479;28;20226;-61
2022/09/01 09:31:35;;;;;;;3.13;2.50;;;24.50;99.90;;;;;;5015926;28;20191;-61
2022/09/01 09:34:01;;;;;;;2.60;2.40;;;24.60;99.90;;;;;;5003504;28;20178;-61
2022/09/01 09:36:33;;;;;;;3.13;2.47;;;24.60;99.90;;;;;;5045228;28;20186;-61
2022/09/01 09:39:25;;;;;;;2.95;2.70;;;24.40;99.90;;;;;;5030957;28;20617;-61
2022/09/01 09:42:07;;;;;;;3.35;2.75;;;24.10;99.90;;;;;;5012866;28;20225;-60
2022/09/01 09:44:51;;;;;;;4.30;3.05;;;23.90;99.90;;;;;;5030217;28;20179;-60
2022/09/01 09:47:36;;;;;;;2.28;2.17;;;23.90;99.90;;;;;;5026054;28;20179;-61
2022/09/01 09:50:16;;;;;;;2.47;2.33;;;24.20;99.90;;;;;;5024558;28;20186;-62
2022/09/01 09:52:45;;;;;;;2.35;2.15;;;24.20;99.90;;;;;;5013561;28;20179;-60
2022/09/01 09:56:06;;;;;;;2.80;2.35;;;24.30;99.90;;;;;;5052092;28;20226;-60
2022/09/01 09:58:38;;;;;;;4.55;2.28;;;24.30;99.90;;;;;;5018800;28;20194;-60
2022/09/01 10:01:14;;;;;;;2.13;1.98;;;24.50;99.90;;;;;;5017044;28;20266;-60
2022/09/01 10:03:52;;;;;;;2.53;2.08;;;24.70;99.90;;;;;;5024963;28;20190;-60
2022/09/01 10:06:45;;;;;;;3.83;2.33;;;24.60;99.90;;;;;;5020129;28;20266;-60
2022/09/01 10:09:34;;;;;;;2.92;2.30;;;24.70;99.90;;;;;;5014185;28;20211;-64
2022/09/01 10:12:01;;;;;;;2.13;1.98;;;24.70;99.90;;;;;;5021900;28;20248;-60
2022/09/01 10:14:41;;;;;;;1.88;1.77;;;24.80;99.90;;;;;;5015650;28;20519;-61
2022/09/01 10:17:17;;;;;;;3.35;2.17;;;25.10;99.90;;;;;;5025247;28;20337;-61
2022/09/01 10:19:53;;;;;;;2.33;2.20;;;25.20;99.90;;;;;;5012138;28;20555;-60
2022/09/01 10:22:19;;;;;;;2.40;2.22;;;25.00;99.90;;;;;;5012628;28;20218;-60
2022/09/01 10:24:45;;;;;;;3.33;2.30;;;24.80;99.90;;;;;;5018466;28;20558;-60
2022/09/01 10:27:24;;;;;;;2.13;1.98;;;24.90;99.90;;;;;;5031775;28;20197;-60
2022/09/01 10:29:55;;;;;;;2.50;2.30;;;24.90;99.90;;;;;;5022469;28;20727;-60
2022/09/01 10:32:30;;;;;;;2.00;1.90;;;24.80;99.90;;;;;;5020766;28;20245;-60
2022/09/01 10:34:56;;;;;;;2.22;2.05;;;24.90;99.90;;;;;;5018564;28;20187;-60
2022/09/01 10:37:23;;;;;;;1.80;1.70;;;24.70;99.90;;;;;;5017267;28;20186;-60
2022/09/01 10:40:12;;;;;;;2.83;1.80;;;24.90;99.90;;;;;;5025451;28;20183;-61
2022/09/01 10:42:41;;;;;;;3.30;1.98;;;24.80;99.90;;;;;;5025226;28;20202;-61
2022/09/01 10:45:24;;;;;;;2.92;2.67;;;24.60;99.90;;;;;;5016801;28;20186;-62
2022/09/01 10:47:50;;;;;;;1.80;1.70;;;24.50;99.90;;;;;;5027168;28;20523;-62
2022/09/01 10:50:31;;;;;;;2.72;2.15;;;24.30;99.90;;;;;;5024685;28;20222;-61
2022/09/01 10:53:06;;;;;;;2.72;2.20;;;24.60;99.90;;;;;;5016292;28;20187;-62
2022/09/01 10:55:45;;;;;;;2.10;1.92;;;24.80;99.90;;;;;;5017293;28;20206;-64
2022/09/01 10:58:39;;;;;;;2.42;2.33;;;25.00;99.90;;;;;;5027083;28;20185;-61
2022/09/01 11:01:05;;;;;;;2.88;2.10;;;24.90;99.90;;;;;;5020710;28;20191;-61
2022/09/01 11:03:31;;;;;;;2.05;1.95;;;24.90;99.90;;;;;;5018153;28;20629;-62
2022/09/01 11:06:01;;;;;;;3.63;1.92;;;24.80;99.90;;;;;;5026045;28;20179;-61
2022/09/01 11:08:26;;;;;;;1.98;1.88;;;24.80;99.90;;;;;;5015784;28;20215;-59
2022/09/01 11:11:08;;;;;;;4.80;2.30;;;25.10;99.90;;;;;;5023846;28;20190;-60
2022/09/01 11:13:42;;;;;;;2.92;1.92;;;25.10;99.90;;;;;;5029808;28;20330;-61
2022/09/01 11:16:28;;;;;;;1.88;1.77;;;25.10;99.90;;;;;;5016109;28;20186;-60
2022/09/01 11:19:14;;;;;;;2.42;2.20;;;25.00;99.90;;;;;;5020197;28;20190;-61
2022/09/01 11:21:41;;;;;;;1.77;1.67;;;24.70;99.90;;;;;;5023401;28;20203;-60
2022/09/01 11:24:37;;;;;;;1.70;1.60;;;24.60;99.90;;;;;;5015327;28;20184;-61
2022/09/01 11:27:07;;;;;;;1.92;1.83;;;24.50;99.90;;;;;;5027777;28;20230;-62
2022/09/01 11:29:57;;;;;;;1.77;1.67;;;24.60;99.90;;;;;;5018806;28;20660;-61
2022/09/01 11:32:37;;;;;;;1.88;1.77;;;24.70;99.90;;;;;;5028863;28;20237;-62
2022/09/01 11:35:12;;;;;;;2.40;2.20;;;24.80;99.90;;;;;;5025432;28;20187;-62
2022/09/01 11:37:39;;;;;;;2.97;2.30;;;24.70;99.90;;;;;;5016246;28;20197;-62
2022/09/01 11:40:09;;;;;;;2.30;2.10;;;24.80;99.90;;;;;;5053622;28;20187;-61
2022/09/01 11:42:42;;;;;;;2.70;2.22;;;24.80;99.90;;;;;;5021148;28;20184;-61
2022/09/01 11:45:31;;;;;;;2.15;1.95;;;24.80;99.90;;;;;;5021101;28;20250;-61
2022/09/01 11:48:06;;;;;;;1.40;1.40;;;25.10;99.90;;;;;;5029250;28;20186;-62
2022/09/01 11:50:35;;;;;;;1.90;1.80;;;25.30;99.90;;;;;;5015572;28;20183;-62
2022/09/01 11:53:07;;;;;;;1.80;1.63;;;25.50;99.90;;;;;;5016554;28;20227;-62
2022/09/01 11:55:39;;;;;;;3.47;2.08;;;25.60;99.90;;;;;;5028510;28;20202;-61
2022/09/01 11:58:09;;;;;;;5.25;2.10;;;25.90;99.90;;;;;;5029840;28;20639;-61
2022/09/01 12:00:37;;;;;;;3.13;1.90;;;25.70;99.90;;;;;;5015156;28;20191;-61
2022/09/01 12:03:17;;;;;;;1.65;1.60;;;25.60;99.90;;;;;;5028480;28;20221;-61
2022/09/01 12:05:45;;;;;;;3.63;1.88;;;26.00;99.90;;;;;;5030422;28;20190;-61
2022/09/01 12:08:17;;;;;;;1.95;1.85;;;26.30;99.90;;;;;;5015866;28;20730;-61
2022/09/01 12:10:44;;;;;;;2.30;2.10;;;26.30;99.90;;;;;;5023618;28;20236;-60
2022/09/01 12:13:22;;;;;;;2.15;1.80;;;26.60;99.90;;;;;;5020461;28;20710;-60
2022/09/01 12:16:02;;;;;;;2.17;1.98;;;26.60;99.90;;;;;;5021634;28;20274;-60
2022/09/01 12:18:34;;;;;;;1.88;1.70;;;26.70;99.90;;;;;;5019770;28;20214;-61
2022/09/01 12:21:03;;;;;;;2.40;1.90;;;26.40;99.90;;;;;;5017017;28;20191;-61
2022/09/01 12:23:41;;;;;;;1.58;1.48;;;26.40;99.90;;;;;;5014503;28;20190;-62
2022/09/01 12:26:11;;;;;;;2.88;2.15;;;26.20;99.90;;;;;;5023412;28;20190;-61
2022/09/01 12:28:40;;;;;;;1.98;1.88;;;26.10;99.90;;;;;;5024039;28;20238;-61
2022/09/01 12:31:12;;;;;;;3.20;2.90;;;26.00;99.90;;;;;;5027678;28;20552;-61
2022/09/01 12:33:38;;;;;;;2.33;1.95;;;25.90;99.90;;;;;;5017799;28;20517;-61
2022/09/01 12:36:24;;;;;;;4.20;2.05;;;26.00;99.90;;;;;;5025973;28;20197;-62
2022/09/01 12:38:53;;;;;;;4.38;2.05;;;25.70;99.90;;;;;;5025143;28;20193;-61
2022/09/01 12:41:36;;;;;;;2.45;2.22;;;25.40;99.90;;;;;;5045911;28;20260;-61
2022/09/01 12:44:30;;;;;;;1.80;1.70;;;25.50;99.90;;;;;;5014696;28;20214;-62
2022/09/01 12:46:58;;;;;;;1.90;1.80;;;25.80;99.90;;;;;;5028317;28;20262;-62
2022/09/01 12:49:40;;;;;;;2.28;2.00;;;25.80;99.90;;;;;;5019090;28;20268;-61
2022/09/01 12:52:15;;;;;;;3.55;2.40;;;25.80;99.90;;;;;;5021653;28;20265;-62
2022/09/01 12:54:40;;;;;;;2.10;2.00;;;26.10;99.90;;;;;;5032568;28;20189;-61
2022/09/01 12:57:06;;;;;;;1.88;1.75;;;26.20;99.90;;;;;;5022907;28;20217;-60
2022/09/01 12:59:32;;;;;;;2.47;2.03;;;26.20;99.90;;;;;;5016941;28;20191;-61
2022/09/01 13:02:36;;;;;;;2.45;2.30;;;26.10;99.90;;;;;;5016839;28;20242;-61
2022/09/01 13:05:41;;;;;;;1.77;1.67;;;25.90;99.90;;;;;;5020779;28;20217;-61
2022/09/01 13:08:12;;;;;;;5.93;2.25;;;25.70;99.90;;;;;;5012045;28;20223;-61